KPTN/PTN METAR and TAF weather

Enter ICAO airport designator
Station Type Date Time Source
KPTN METAR 2020/01/26 03:56 UTC NOAA

KPTN 260356Z AUTO 13006KT 10SM FEW049 BKN075 OVC090 12/09 A3015 RMK AO2 PRESFR SLP211 T01170094


Station Type Date Time Source
KPTN Decoded METAR 2020/01/26 03:56 UTC NOAA

Patterson Memorial, LA, United States (KPTN) 29-43N 091-20W
Jan 25, 2020 - 10:56 PM EST / 2020.01.26 0356 UTC
Wind: from the SE (130 degrees) at 7 MPH (6 KT):0
Visibility: 10 mile(s):0
Sky conditions: overcast
Temperature: 53.1 F (11.7 C)
Dew Point: 48.9 F (9.4 C)
Relative Humidity: 85%
Pressure (altimeter): 30.15 in. Hg (1020 hPa)
Pressure tendency: falling rapidly
ob: KPTN 260356Z AUTO 13006KT 10SM FEW049 BKN075 OVC090 12/09 A3015 RMK AO2 PRESFR SLP211 T01170094
cycle: 4

Station Type Date Time Source
KPTN TAF UTC NOAA

Error!

Example: see airport list